sensor_id;sensor_type;location;lat;lon;timestamp;P1;durP1;ratioP1;P2;durP2;ratioP2
12141;SDS011;6134;59.284;18.022;2022-09-21T00:01:02;1.25;;;1.00;;
12141;SDS011;6134;59.284;18.022;2022-09-21T00:03:31;3.00;;;1.10;;
12141;SDS011;6134;59.284;18.022;2022-09-21T00:06:00;1.58;;;1.00;;
12141;SDS011;6134;59.284;18.022;2022-09-21T00:08:29;1.90;;;1.00;;
12141;SDS011;6134;59.284;18.022;2022-09-21T00:10:57;1.63;;;1.10;;
12141;SDS011;6134;59.284;18.022;2022-09-21T00:13:27;2.28;;;1.10;;
12141;SDS011;6134;59.284;18.022;2022-09-21T00:15:57;3.50;;;1.20;;
12141;SDS011;6134;59.284;18.022;2022-09-21T00:18:25;1.08;;;0.70;;
12141;SDS011;6134;59.284;18.022;2022-09-21T00:20:53;4.13;;;1.23;;
12141;SDS011;6134;59.284;18.022;2022-09-21T00:23:22;1.92;;;0.95;;
12141;SDS011;6134;59.284;18.022;2022-09-21T00:25:51;1.52;;;0.95;;
12141;SDS011;6134;59.284;18.022;2022-09-21T00:28:20;1.15;;;1.00;;
12141;SDS011;6134;59.284;18.022;2022-09-21T00:30:50;1.63;;;0.90;;
12141;SDS011;6134;59.284;18.022;2022-09-21T00:33:18;2.03;;;0.85;;
12141;SDS011;6134;59.284;18.022;2022-09-21T00:35:46;0.70;;;0.70;;
12141;SDS011;6134;59.284;18.022;2022-09-21T00:38:15;2.85;;;0.90;;
12141;SDS011;6134;59.284;18.022;2022-09-21T00:40:43;0.75;;;0.75;;
12141;SDS011;6134;59.284;18.022;2022-09-21T00:43:12;1.92;;;0.98;;
12141;SDS011;6134;59.284;18.022;2022-09-21T00:45:41;1.55;;;0.90;;
12141;SDS011;6134;59.284;18.022;2022-09-21T00:48:11;2.97;;;0.88;;
12141;SDS011;6134;59.284;18.022;2022-09-21T00:50:41;3.28;;;1.00;;
12141;SDS011;6134;59.284;18.022;2022-09-21T00:53:10;1.60;;;0.90;;
12141;SDS011;6134;59.284;18.022;2022-09-21T00:55:39;6.30;;;0.90;;
12141;SDS011;6134;59.284;18.022;2022-09-21T00:58:10;1.40;;;0.80;;
12141;SDS011;6134;59.284;18.022;2022-09-21T01:00:41;2.10;;;0.80;;
12141;SDS011;6134;59.284;18.022;2022-09-21T01:03:09;1.67;;;0.80;;
12141;SDS011;6134;59.284;18.022;2022-09-21T01:05:40;1.80;;;0.98;;
12141;SDS011;6134;59.284;18.022;2022-09-21T01:08:08;0.70;;;0.70;;
12141;SDS011;6134;59.284;18.022;2022-09-21T01:10:40;1.92;;;1.15;;
12141;SDS011;6134;59.284;18.022;2022-09-21T01:13:12;1.77;;;1.23;;
12141;SDS011;6134;59.284;18.022;2022-09-21T01:15:47;1.05;;;0.80;;
12141;SDS011;6134;59.284;18.022;2022-09-21T01:18:19;2.88;;;1.10;;
12141;SDS011;6134;59.284;18.022;2022-09-21T01:26:24;2.25;;;1.00;;
12141;SDS011;6134;59.284;18.022;2022-09-21T01:29:05;2.08;;;1.05;;
12141;SDS011;6134;59.284;18.022;2022-09-21T01:31:36;2.85;;;1.20;;
12141;SDS011;6134;59.284;18.022;2022-09-21T01:34:06;2.55;;;1.00;;
12141;SDS011;6134;59.284;18.022;2022-09-21T01:36:36;1.77;;;1.00;;
12141;SDS011;6134;59.284;18.022;2022-09-21T01:39:06;2.38;;;0.95;;
12141;SDS011;6134;59.284;18.022;2022-09-21T01:41:35;1.90;;;1.13;;
12141;SDS011;6134;59.284;18.022;2022-09-21T01:44:07;1.50;;;1.20;;
12141;SDS011;6134;59.284;18.022;2022-09-21T01:46:37;1.10;;;0.98;;
12141;SDS011;6134;59.284;18.022;2022-09-21T01:49:07;3.03;;;0.98;;
12141;SDS011;6134;59.284;18.022;2022-09-21T01:51:38;0.75;;;0.70;;
12141;SDS011;6134;59.284;18.022;2022-09-21T01:54:09;1.42;;;0.90;;
12141;SDS011;6134;59.284;18.022;2022-09-21T01:56:40;1.30;;;0.98;;
12141;SDS011;6134;59.284;18.022;2022-09-21T01:59:15;1.10;;;1.00;;
12141;SDS011;6134;59.284;18.022;2022-09-21T02:01:46;0.95;;;0.70;;
12141;SDS011;6134;59.284;18.022;2022-09-21T02:04:16;2.35;;;0.90;;
12141;SDS011;6134;59.284;18.022;2022-09-21T02:06:45;4.40;;;1.10;;
12141;SDS011;6134;59.284;18.022;2022-09-21T02:09:14;0.85;;;0.73;;
12141;SDS011;6134;59.284;18.022;2022-09-21T02:11:42;1.13;;;0.70;;
12141;SDS011;6134;59.284;18.022;2022-09-21T02:14:11;3.08;;;0.90;;
12141;SDS011;6134;59.284;18.022;2022-09-21T02:16:43;1.55;;;0.95;;
12141;SDS011;6134;59.284;18.022;2022-09-21T02:19:17;1.60;;;0.80;;
12141;SDS011;6134;59.284;18.022;2022-09-21T02:21:53;2.13;;;0.90;;
12141;SDS011;6134;59.284;18.022;2022-09-21T02:24:29;2.25;;;0.82;;
12141;SDS011;6134;59.284;18.022;2022-09-21T02:27:02;1.83;;;0.80;;
12141;SDS011;6134;59.284;18.022;2022-09-21T02:29:34;0.90;;;0.70;;
12141;SDS011;6134;59.284;18.022;2022-09-21T02:32:06;0.95;;;0.82;;
12141;SDS011;6134;59.284;18.022;2022-09-21T02:34:38;0.98;;;0.85;;
12141;SDS011;6134;59.284;18.022;2022-09-21T02:37:15;1.20;;;0.88;;
12141;SDS011;6134;59.284;18.022;2022-09-21T02:39:46;1.13;;;1.00;;
12141;SDS011;6134;59.284;18.022;2022-09-21T02:42:17;2.25;;;0.90;;
12141;SDS011;6134;59.284;18.022;2022-09-21T02:44:49;1.73;;;0.95;;
12141;SDS011;6134;59.284;18.022;2022-09-21T02:47:21;1.52;;;1.10;;
12141;SDS011;6134;59.284;18.022;2022-09-21T02:49:53;1.42;;;0.90;;
12141;SDS011;6134;59.284;18.022;2022-09-21T02:52:23;1.50;;;1.10;;
12141;SDS011;6134;59.284;18.022;2022-09-21T02:54:52;1.63;;;0.98;;
12141;SDS011;6134;59.284;18.022;2022-09-21T02:57:21;1.00;;;0.90;;
12141;SDS011;6134;59.284;18.022;2022-09-21T02:59:50;1.25;;;0.98;;
12141;SDS011;6134;59.284;18.022;2022-09-21T03:02:20;1.67;;;1.00;;
12141;SDS011;6134;59.284;18.022;2022-09-21T03:04:49;1.75;;;1.00;;
12141;SDS011;6134;59.284;18.022;2022-09-21T03:07:17;3.35;;;1.20;;
12141;SDS011;6134;59.284;18.022;2022-09-21T03:09:46;1.88;;;1.10;;
12141;SDS011;6134;59.284;18.022;2022-09-21T03:12:14;1.42;;;1.10;;
12141;SDS011;6134;59.284;18.022;2022-09-21T03:14:43;2.17;;;1.10;;
12141;SDS011;6134;59.284;18.022;2022-09-21T03:17:11;3.63;;;1.27;;
12141;SDS011;6134;59.284;18.022;2022-09-21T03:19:41;1.17;;;1.00;;
12141;SDS011;6134;59.284;18.022;2022-09-21T03:22:09;1.00;;;0.90;;
12141;SDS011;6134;59.284;18.022;2022-09-21T03:24:38;1.10;;;1.00;;
12141;SDS011;6134;59.284;18.022;2022-09-21T03:27:12;1.67;;;1.00;;
12141;SDS011;6134;59.284;18.022;2022-09-21T03:29:41;1.23;;;1.10;;
12141;SDS011;6134;59.284;18.022;2022-09-21T03:32:09;2.45;;;1.08;;
12141;SDS011;6134;59.284;18.022;2022-09-21T03:34:39;0.93;;;0.90;;
12141;SDS011;6134;59.284;18.022;2022-09-21T03:37:09;2.22;;;1.10;;
12141;SDS011;6134;59.284;18.022;2022-09-21T03:39:37;2.40;;;0.95;;
12141;SDS011;6134;59.284;18.022;2022-09-21T03:42:06;1.75;;;1.00;;
12141;SDS011;6134;59.284;18.022;2022-09-21T03:44:35;1.23;;;1.13;;
12141;SDS011;6134;59.284;18.022;2022-09-21T03:47:03;1.00;;;0.80;;
12141;SDS011;6134;59.284;18.022;2022-09-21T03:49:32;1.48;;;0.90;;
12141;SDS011;6134;59.284;18.022;2022-09-21T03:52:01;2.83;;;1.13;;
12141;SDS011;6134;59.284;18.022;2022-09-21T03:54:31;1.60;;;1.17;;
12141;SDS011;6134;59.284;18.022;2022-09-21T03:57:00;2.08;;;0.90;;
12141;SDS011;6134;59.284;18.022;2022-09-21T03:59:28;1.13;;;0.80;;
12141;SDS011;6134;59.284;18.022;2022-09-21T04:01:57;6.25;;;1.40;;
12141;SDS011;6134;59.284;18.022;2022-09-21T04:04:25;3.47;;;1.30;;
12141;SDS011;6134;59.284;18.022;2022-09-21T04:06:54;2.30;;;1.00;;
12141;SDS011;6134;59.284;18.022;2022-09-21T04:09:22;2.92;;;1.20;;
12141;SDS011;6134;59.284;18.022;2022-09-21T04:11:52;1.42;;;0.85;;
12141;SDS011;6134;59.284;18.022;2022-09-21T04:14:20;2.10;;;1.30;;
12141;SDS011;6134;59.284;18.022;2022-09-21T04:16:49;2.42;;;1.05;;
12141;SDS011;6134;59.284;18.022;2022-09-21T04:19:18;2.28;;;1.00;;
12141;SDS011;6134;59.284;18.022;2022-09-21T04:21:47;2.05;;;1.15;;
12141;SDS011;6134;59.284;18.022;2022-09-21T04:24:16;2.65;;;1.30;;
12141;SDS011;6134;59.284;18.022;2022-09-21T04:26:45;2.08;;;1.55;;
12141;SDS011;6134;59.284;18.022;2022-09-21T04:29:15;2.25;;;0.95;;
12141;SDS011;6134;59.284;18.022;2022-09-21T04:31:43;1.80;;;1.17;;
12141;SDS011;6134;59.284;18.022;2022-09-21T04:34:12;2.88;;;1.30;;
12141;SDS011;6134;59.284;18.022;2022-09-21T04:36:40;2.00;;;1.20;;
12141;SDS011;6134;59.284;18.022;2022-09-21T04:39:09;4.47;;;1.20;;
12141;SDS011;6134;59.284;18.022;2022-09-21T04:41:37;1.65;;;1.45;;
12141;SDS011;6134;59.284;18.022;2022-09-21T04:44:07;1.60;;;1.50;;
12141;SDS011;6134;59.284;18.022;2022-09-21T04:46:37;2.28;;;1.13;;
12141;SDS011;6134;59.284;18.022;2022-09-21T04:49:05;1.70;;;1.45;;
12141;SDS011;6134;59.284;18.022;2022-09-21T04:51:34;1.70;;;1.25;;
12141;SDS011;6134;59.284;18.022;2022-09-21T04:54:02;1.90;;;1.27;;
12141;SDS011;6134;59.284;18.022;2022-09-21T04:56:32;2.28;;;1.30;;
12141;SDS011;6134;59.284;18.022;2022-09-21T04:59:00;2.08;;;1.20;;
12141;SDS011;6134;59.284;18.022;2022-09-21T05:01:29;3.63;;;1.48;;
12141;SDS011;6134;59.284;18.022;2022-09-21T05:03:59;3.47;;;1.25;;
12141;SDS011;6134;59.284;18.022;2022-09-21T05:06:28;1.92;;;1.10;;
12141;SDS011;6134;59.284;18.022;2022-09-21T05:08:56;3.75;;;1.20;;
12141;SDS011;6134;59.284;18.022;2022-09-21T05:11:43;1.88;;;1.20;;
12141;SDS011;6134;59.284;18.022;2022-09-21T05:14:11;5.13;;;1.20;;
12141;SDS011;6134;59.284;18.022;2022-09-21T05:16:40;1.52;;;1.40;;
12141;SDS011;6134;59.284;18.022;2022-09-21T05:19:09;2.40;;;1.60;;
12141;SDS011;6134;59.284;18.022;2022-09-21T05:21:38;2.47;;;1.50;;
12141;SDS011;6134;59.284;18.022;2022-09-21T05:24:06;2.28;;;1.63;;
12141;SDS011;6134;59.284;18.022;2022-09-21T05:26:35;2.20;;;1.33;;
12141;SDS011;6134;59.284;18.022;2022-09-21T05:29:03;2.55;;;1.52;;
12141;SDS011;6134;59.284;18.022;2022-09-21T05:31:37;2.15;;;1.70;;
12141;SDS011;6134;59.284;18.022;2022-09-21T05:34:14;3.60;;;2.30;;
12141;SDS011;6134;59.284;18.022;2022-09-21T05:36:48;4.93;;;2.53;;
12141;SDS011;6134;59.284;18.022;2022-09-21T05:39:20;2.92;;;2.05;;
12141;SDS011;6134;59.284;18.022;2022-09-21T05:41:49;3.47;;;1.85;;
12141;SDS011;6134;59.284;18.022;2022-09-21T05:44:18;2.75;;;1.73;;
12141;SDS011;6134;59.284;18.022;2022-09-21T05:46:49;3.67;;;1.90;;
12141;SDS011;6134;59.284;18.022;2022-09-21T05:49:25;3.25;;;1.98;;
12141;SDS011;6134;59.284;18.022;2022-09-21T05:51:57;5.50;;;3.33;;
12141;SDS011;6134;59.284;18.022;2022-09-21T05:54:30;8.65;;;5.05;;
12141;SDS011;6134;59.284;18.022;2022-09-21T05:57:00;17.38;;;10.27;;
12141;SDS011;6134;59.284;18.022;2022-09-21T05:59:36;20.67;;;12.27;;
12141;SDS011;6134;59.284;18.022;2022-09-21T06:02:11;17.33;;;10.27;;
12141;SDS011;6134;59.284;18.022;2022-09-21T06:04:45;13.82;;;7.43;;
12141;SDS011;6134;59.284;18.022;2022-09-21T06:07:14;7.30;;;4.28;;
12141;SDS011;6134;59.284;18.022;2022-09-21T06:09:43;7.13;;;3.20;;
12141;SDS011;6134;59.284;18.022;2022-09-21T06:12:11;3.50;;;2.80;;
12141;SDS011;6134;59.284;18.022;2022-09-21T06:14:40;4.43;;;3.00;;
12141;SDS011;6134;59.284;18.022;2022-09-21T06:17:09;4.10;;;2.50;;
12141;SDS011;6134;59.284;18.022;2022-09-21T06:19:37;3.33;;;2.60;;
12141;SDS011;6134;59.284;18.022;2022-09-21T06:22:07;3.45;;;2.20;;
12141;SDS011;6134;59.284;18.022;2022-09-21T06:24:36;7.32;;;2.42;;
12141;SDS011;6134;59.284;18.022;2022-09-21T06:27:04;5.30;;;2.38;;
12141;SDS011;6134;59.284;18.022;2022-09-21T06:29:32;8.43;;;2.60;;
12141;SDS011;6134;59.284;18.022;2022-09-21T06:32:01;7.65;;;2.90;;
12141;SDS011;6134;59.284;18.022;2022-09-21T06:34:30;7.90;;;2.67;;
12141;SDS011;6134;59.284;18.022;2022-09-21T06:36:58;11.43;;;3.25;;
12141;SDS011;6134;59.284;18.022;2022-09-21T06:39:28;6.35;;;2.35;;
12141;SDS011;6134;59.284;18.022;2022-09-21T06:41:57;3.22;;;1.60;;
12141;SDS011;6134;59.284;18.022;2022-09-21T06:44:25;8.63;;;2.10;;
12141;SDS011;6134;59.284;18.022;2022-09-21T06:46:55;5.75;;;1.50;;
12141;SDS011;6134;59.284;18.022;2022-09-21T06:49:23;5.70;;;2.10;;
12141;SDS011;6134;59.284;18.022;2022-09-21T06:51:53;9.80;;;2.25;;
12141;SDS011;6134;59.284;18.022;2022-09-21T06:54:22;6.60;;;1.83;;
12141;SDS011;6134;59.284;18.022;2022-09-21T06:56:52;5.25;;;1.80;;
12141;SDS011;6134;59.284;18.022;2022-09-21T06:59:25;8.07;;;1.80;;
12141;SDS011;6134;59.284;18.022;2022-09-21T07:01:53;3.03;;;1.35;;
12141;SDS011;6134;59.284;18.022;2022-09-21T07:04:24;4.57;;;1.10;;
12141;SDS011;6134;59.284;18.022;2022-09-21T07:06:53;1.60;;;0.80;;
12141;SDS011;6134;59.284;18.022;2022-09-21T07:09:23;1.55;;;0.70;;
12141;SDS011;6134;59.284;18.022;2022-09-21T07:12:12;0.70;;;0.70;;
12141;SDS011;6134;59.284;18.022;2022-09-21T07:14:41;2.00;;;0.80;;
12141;SDS011;6134;59.284;18.022;2022-09-21T07:17:11;1.05;;;0.80;;
12141;SDS011;6134;59.284;18.022;2022-09-21T07:19:41;0.90;;;0.80;;
12141;SDS011;6134;59.284;18.022;2022-09-21T07:22:09;0.95;;;0.80;;
12141;SDS011;6134;59.284;18.022;2022-09-21T07:24:38;2.63;;;0.90;;
12141;SDS011;6134;59.284;18.022;2022-09-21T07:27:06;0.90;;;0.70;;
12141;SDS011;6134;59.284;18.022;2022-09-21T07:29:36;2.15;;;0.85;;
12141;SDS011;6134;59.284;18.022;2022-09-21T07:32:04;0.60;;;0.60;;
12141;SDS011;6134;59.284;18.022;2022-09-21T07:34:33;1.85;;;0.93;;
12141;SDS011;6134;59.284;18.022;2022-09-21T07:37:02;1.33;;;0.75;;
12141;SDS011;6134;59.284;18.022;2022-09-21T07:39:30;1.95;;;0.70;;
12141;SDS011;6134;59.284;18.022;2022-09-21T07:42:00;2.08;;;0.65;;
12141;SDS011;6134;59.284;18.022;2022-09-21T07:44:29;1.05;;;0.70;;
12141;SDS011;6134;59.284;18.022;2022-09-21T07:46:59;1.98;;;0.60;;
12141;SDS011;6134;59.284;18.022;2022-09-21T07:49:28;0.80;;;0.80;;
12141;SDS011;6134;59.284;18.022;2022-09-21T07:51:57;1.08;;;0.70;;
12141;SDS011;6134;59.284;18.022;2022-09-21T07:54:31;0.70;;;0.60;;
12141;SDS011;6134;59.284;18.022;2022-09-21T07:57:00;1.50;;;0.60;;
12141;SDS011;6134;59.284;18.022;2022-09-21T07:59:46;1.40;;;0.60;;
12141;SDS011;6134;59.284;18.022;2022-09-21T08:02:16;1.58;;;0.80;;
12141;SDS011;6134;59.284;18.022;2022-09-21T08:04:44;1.15;;;0.88;;
12141;SDS011;6134;59.284;18.022;2022-09-21T08:07:13;0.95;;;0.70;;
12141;SDS011;6134;59.284;18.022;2022-09-21T08:09:41;0.50;;;0.50;;
12141;SDS011;6134;59.284;18.022;2022-09-21T08:12:10;0.70;;;0.52;;
12141;SDS011;6134;59.284;18.022;2022-09-21T08:14:38;1.15;;;0.57;;
12141;SDS011;6134;59.284;18.022;2022-09-21T08:17:08;2.47;;;0.98;;
12141;SDS011;6134;59.284;18.022;2022-09-21T08:19:37;0.63;;;0.55;;
12141;SDS011;6134;59.284;18.022;2022-09-21T08:22:06;3.22;;;0.70;;
12141;SDS011;6134;59.284;18.022;2022-09-21T08:24:34;1.88;;;0.70;;
12141;SDS011;6134;59.284;18.022;2022-09-21T08:27:03;1.30;;;0.60;;
12141;SDS011;6134;59.284;18.022;2022-09-21T08:29:33;0.98;;;0.60;;
12141;SDS011;6134;59.284;18.022;2022-09-21T08:32:02;2.00;;;0.75;;
12141;SDS011;6134;59.284;18.022;2022-09-21T08:34:30;1.90;;;0.70;;
12141;SDS011;6134;59.284;18.022;2022-09-21T08:37:00;2.75;;;0.80;;
12141;SDS011;6134;59.284;18.022;2022-09-21T08:39:28;1.02;;;0.60;;
12141;SDS011;6134;59.284;18.022;2022-09-21T08:41:59;0.75;;;0.63;;
12141;SDS011;6134;59.284;18.022;2022-09-21T08:44:32;4.97;;;0.98;;
12141;SDS011;6134;59.284;18.022;2022-09-21T08:47:05;0.80;;;0.60;;
12141;SDS011;6134;59.284;18.022;2022-09-21T08:49:38;0.88;;;0.70;;
12141;SDS011;6134;59.284;18.022;2022-09-21T08:52:10;2.00;;;0.73;;
12141;SDS011;6134;59.284;18.022;2022-09-21T08:54:43;0.80;;;0.70;;
12141;SDS011;6134;59.284;18.022;2022-09-21T08:57:14;2.50;;;0.65;;
12141;SDS011;6134;59.284;18.022;2022-09-21T08:59:43;0.60;;;0.60;;
12141;SDS011;6134;59.284;18.022;2022-09-21T09:02:20;2.25;;;0.73;;
12141;SDS011;6134;59.284;18.022;2022-09-21T09:04:56;2.35;;;0.60;;
12141;SDS011;6134;59.284;18.022;2022-09-21T09:07:35;0.60;;;0.60;;
12141;SDS011;6134;59.284;18.022;2022-09-21T09:10:15;1.10;;;0.70;;
12141;SDS011;6134;59.284;18.022;2022-09-21T09:12:51;2.88;;;0.60;;
12141;SDS011;6134;59.284;18.022;2022-09-21T09:15:30;1.17;;;0.60;;
12141;SDS011;6134;59.284;18.022;2022-09-21T09:18:01;1.60;;;0.80;;
12141;SDS011;6134;59.284;18.022;2022-09-21T09:20:35;1.25;;;0.70;;
12141;SDS011;6134;59.284;18.022;2022-09-21T09:23:08;1.50;;;0.70;;
12141;SDS011;6134;59.284;18.022;2022-09-21T09:25:39;1.35;;;0.77;;
12141;SDS011;6134;59.284;18.022;2022-09-21T09:30:59;0.85;;;0.68;;
12141;SDS011;6134;59.284;18.022;2022-09-21T09:33:29;2.25;;;0.90;;
12141;SDS011;6134;59.284;18.022;2022-09-21T09:36:00;2.80;;;0.60;;
12141;SDS011;6134;59.284;18.022;2022-09-21T09:38:32;1.45;;;0.70;;
12141;SDS011;6134;59.284;18.022;2022-09-21T09:43:55;1.60;;;0.82;;
12141;SDS011;6134;59.284;18.022;2022-09-21T09:46:28;2.10;;;0.85;;
12141;SDS011;6134;59.284;18.022;2022-09-21T09:49:04;0.80;;;0.80;;
12141;SDS011;6134;59.284;18.022;2022-09-21T09:51:34;2.15;;;1.00;;
12141;SDS011;6134;59.284;18.022;2022-09-21T09:54:05;0.75;;;0.75;;
12141;SDS011;6134;59.284;18.022;2022-09-21T09:56:36;1.10;;;0.80;;
12141;SDS011;6134;59.284;18.022;2022-09-21T09:59:05;0.88;;;0.60;;
12141;SDS011;6134;59.284;18.022;2022-09-21T10:01:39;1.33;;;0.70;;
12141;SDS011;6134;59.284;18.022;2022-09-21T10:04:09;3.50;;;0.70;;
12141;SDS011;6134;59.284;18.022;2022-09-21T10:06:38;1.40;;;0.95;;
12141;SDS011;6134;59.284;18.022;2022-09-21T10:09:21;1.67;;;0.80;;
12141;SDS011;6134;59.284;18.022;2022-09-21T10:11:50;0.70;;;0.70;;
12141;SDS011;6134;59.284;18.022;2022-09-21T10:14:20;1.30;;;0.80;;
12141;SDS011;6134;59.284;18.022;2022-09-21T10:16:49;5.22;;;0.77;;
12141;SDS011;6134;59.284;18.022;2022-09-21T10:19:19;1.58;;;0.60;;
12141;SDS011;6134;59.284;18.022;2022-09-21T10:21:48;1.55;;;0.90;;
12141;SDS011;6134;59.284;18.022;2022-09-21T10:24:21;0.70;;;0.70;;
12141;SDS011;6134;59.284;18.022;2022-09-21T10:26:51;0.70;;;0.70;;
12141;SDS011;6134;59.284;18.022;2022-09-21T10:29:28;1.08;;;0.50;;
12141;SDS011;6134;59.284;18.022;2022-09-21T10:31:58;2.15;;;0.73;;
12141;SDS011;6134;59.284;18.022;2022-09-21T10:34:27;0.82;;;0.65;;
12141;SDS011;6134;59.284;18.022;2022-09-21T10:36:57;1.02;;;0.60;;
12141;SDS011;6134;59.284;18.022;2022-09-21T10:39:29;1.50;;;0.90;;
12141;SDS011;6134;59.284;18.022;2022-09-21T10:41:59;0.80;;;0.65;;
12141;SDS011;6134;59.284;18.022;2022-09-21T10:44:31;0.88;;;0.77;;
12141;SDS011;6134;59.284;18.022;2022-09-21T10:47:01;1.00;;;0.70;;
12141;SDS011;6134;59.284;18.022;2022-09-21T10:49:31;0.63;;;0.63;;
12141;SDS011;6134;59.284;18.022;2022-09-21T10:52:01;0.68;;;0.68;;
12141;SDS011;6134;59.284;18.022;2022-09-21T10:54:31;0.60;;;0.60;;
12141;SDS011;6134;59.284;18.022;2022-09-21T10:57:01;0.95;;;0.68;;
12141;SDS011;6134;59.284;18.022;2022-09-21T10:59:30;2.08;;;0.70;;
12141;SDS011;6134;59.284;18.022;2022-09-21T11:01:59;0.75;;;0.63;;
12141;SDS011;6134;59.284;18.022;2022-09-21T11:04:31;0.70;;;0.63;;
12141;SDS011;6134;59.284;18.022;2022-09-21T11:07:03;0.90;;;0.55;;
12141;SDS011;6134;59.284;18.022;2022-09-21T11:09:34;0.93;;;0.60;;
12141;SDS011;6134;59.284;18.022;2022-09-21T11:12:07;1.50;;;0.60;;
12141;SDS011;6134;59.284;18.022;2022-09-21T11:14:41;0.93;;;0.80;;
12141;SDS011;6134;59.284;18.022;2022-09-21T11:17:11;0.95;;;0.60;;
12141;SDS011;6134;59.284;18.022;2022-09-21T11:19:43;0.55;;;0.50;;
12141;SDS011;6134;59.284;18.022;2022-09-21T11:22:14;1.77;;;0.70;;
12141;SDS011;6134;59.284;18.022;2022-09-21T11:24:45;1.25;;;0.80;;
12141;SDS011;6134;59.284;18.022;2022-09-21T11:27:16;1.40;;;0.63;;
12141;SDS011;6134;59.284;18.022;2022-09-21T11:29:48;2.65;;;0.80;;
12141;SDS011;6134;59.284;18.022;2022-09-21T11:32:28;0.85;;;0.70;;
12141;SDS011;6134;59.284;18.022;2022-09-21T11:37:49;1.05;;;0.70;;
12141;SDS011;6134;59.284;18.022;2022-09-21T11:40:27;1.58;;;0.52;;
12141;SDS011;6134;59.284;18.022;2022-09-21T11:43:02;0.70;;;0.70;;
12141;SDS011;6134;59.284;18.022;2022-09-21T11:45:36;1.45;;;0.77;;
12141;SDS011;6134;59.284;18.022;2022-09-21T11:48:17;0.70;;;0.70;;
12141;SDS011;6134;59.284;18.022;2022-09-21T11:50:52;1.88;;;0.68;;
12141;SDS011;6134;59.284;18.022;2022-09-21T11:53:25;0.95;;;0.60;;
12141;SDS011;6134;59.284;18.022;2022-09-21T11:56:09;2.63;;;0.75;;
12141;SDS011;6134;59.284;18.022;2022-09-21T11:58:41;0.65;;;0.63;;
12141;SDS011;6134;59.284;18.022;2022-09-21T12:01:15;0.65;;;0.60;;
12141;SDS011;6134;59.284;18.022;2022-09-21T12:03:48;0.55;;;0.52;;
12141;SDS011;6134;59.284;18.022;2022-09-21T12:06:24;1.25;;;0.60;;
12141;SDS011;6134;59.284;18.022;2022-09-21T12:11:53;0.68;;;0.60;;
12141;SDS011;6134;59.284;18.022;2022-09-21T12:14:26;1.42;;;0.77;;
12141;SDS011;6134;59.284;18.022;2022-09-21T12:17:01;2.13;;;0.70;;
12141;SDS011;6134;59.284;18.022;2022-09-21T12:19:33;1.52;;;0.63;;
12141;SDS011;6134;59.284;18.022;2022-09-21T12:22:05;0.70;;;0.60;;
12141;SDS011;6134;59.284;18.022;2022-09-21T12:24:37;1.50;;;0.57;;
12141;SDS011;6134;59.284;18.022;2022-09-21T12:27:10;0.50;;;0.50;;
12141;SDS011;6134;59.284;18.022;2022-09-21T12:29:41;0.50;;;0.50;;
12141;SDS011;6134;59.284;18.022;2022-09-21T12:32:13;1.00;;;0.88;;
12141;SDS011;6134;59.284;18.022;2022-09-21T12:34:45;1.10;;;0.80;;
12141;SDS011;6134;59.284;18.022;2022-09-21T12:37:16;2.38;;;0.98;;
12141;SDS011;6134;59.284;18.022;2022-09-21T12:39:47;1.77;;;0.70;;
12141;SDS011;6134;59.284;18.022;2022-09-21T12:42:22;0.88;;;0.70;;
12141;SDS011;6134;59.284;18.022;2022-09-21T12:44:53;2.53;;;0.70;;
12141;SDS011;6134;59.284;18.022;2022-09-21T12:47:24;2.08;;;0.77;;
12141;SDS011;6134;59.284;18.022;2022-09-21T12:49:55;1.17;;;0.80;;
12141;SDS011;6134;59.284;18.022;2022-09-21T12:52:25;0.70;;;0.68;;
12141;SDS011;6134;59.284;18.022;2022-09-21T12:54:56;0.60;;;0.60;;
12141;SDS011;6134;59.284;18.022;2022-09-21T12:57:32;1.15;;;0.70;;
12141;SDS011;6134;59.284;18.022;2022-09-21T13:00:25;2.38;;;0.68;;
12141;SDS011;6134;59.284;18.022;2022-09-21T13:02:56;1.13;;;0.70;;
12141;SDS011;6134;59.284;18.022;2022-09-21T13:05:30;1.75;;;0.68;;
12141;SDS011;6134;59.284;18.022;2022-09-21T13:08:08;0.95;;;0.68;;
12141;SDS011;6134;59.284;18.022;2022-09-21T13:10:45;0.60;;;0.60;;
12141;SDS011;6134;59.284;18.022;2022-09-21T13:13:26;1.33;;;0.60;;
12141;SDS011;6134;59.284;18.022;2022-09-21T13:15:55;1.20;;;0.60;;
12141;SDS011;6134;59.284;18.022;2022-09-21T13:18:25;1.17;;;0.80;;
12141;SDS011;6134;59.284;18.022;2022-09-21T13:21:01;0.50;;;0.50;;
12141;SDS011;6134;59.284;18.022;2022-09-21T13:23:41;0.60;;;0.60;;
12141;SDS011;6134;59.284;18.022;2022-09-21T13:26:10;1.65;;;0.60;;
12141;SDS011;6134;59.284;18.022;2022-09-21T13:31:28;0.65;;;0.63;;
12141;SDS011;6134;59.284;18.022;2022-09-21T13:34:19;1.02;;;0.60;;
12141;SDS011;6134;59.284;18.022;2022-09-21T13:39:31;0.85;;;0.68;;
12141;SDS011;6134;59.284;18.022;2022-09-21T13:44:43;0.70;;;0.70;;
12141;SDS011;6134;59.284;18.022;2022-09-21T13:47:13;0.85;;;0.63;;
12141;SDS011;6134;59.284;18.022;2022-09-21T13:49:47;0.70;;;0.70;;
12141;SDS011;6134;59.284;18.022;2022-09-21T13:52:24;1.00;;;0.80;;
12141;SDS011;6134;59.284;18.022;2022-09-21T13:54:54;0.70;;;0.70;;
12141;SDS011;6134;59.284;18.022;2022-09-21T13:57:25;1.20;;;0.70;;
12141;SDS011;6134;59.284;18.022;2022-09-21T14:00:05;1.17;;;0.55;;
12141;SDS011;6134;59.284;18.022;2022-09-21T14:02:37;0.60;;;0.60;;
12141;SDS011;6134;59.284;18.022;2022-09-21T14:05:08;0.82;;;0.70;;
12141;SDS011;6134;59.284;18.022;2022-09-21T14:07:44;1.40;;;0.80;;
12141;SDS011;6134;59.284;18.022;2022-09-21T14:10:15;1.13;;;0.80;;
12141;SDS011;6134;59.284;18.022;2022-09-21T14:12:45;0.98;;;0.70;;
12141;SDS011;6134;59.284;18.022;2022-09-21T14:15:29;0.73;;;0.60;;
12141;SDS011;6134;59.284;18.022;2022-09-21T14:21:08;1.60;;;0.70;;
12141;SDS011;6134;59.284;18.022;2022-09-21T14:23:36;1.67;;;0.80;;
12141;SDS011;6134;59.284;18.022;2022-09-21T14:26:18;0.93;;;0.70;;
12141;SDS011;6134;59.284;18.022;2022-09-21T14:28:51;1.45;;;0.77;;
12141;SDS011;6134;59.284;18.022;2022-09-21T14:31:19;0.80;;;0.80;;
12141;SDS011;6134;59.284;18.022;2022-09-21T14:33:50;0.88;;;0.80;;
12141;SDS011;6134;59.284;18.022;2022-09-21T14:36:23;2.22;;;0.70;;
12141;SDS011;6134;59.284;18.022;2022-09-21T14:38:57;0.60;;;0.60;;
12141;SDS011;6134;59.284;18.022;2022-09-21T14:41:28;2.33;;;0.80;;
12141;SDS011;6134;59.284;18.022;2022-09-21T14:43:58;0.90;;;0.85;;
12141;SDS011;6134;59.284;18.022;2022-09-21T14:46:37;0.70;;;0.70;;
12141;SDS011;6134;59.284;18.022;2022-09-21T14:49:20;2.03;;;0.73;;
12141;SDS011;6134;59.284;18.022;2022-09-21T14:51:53;0.93;;;0.63;;
12141;SDS011;6134;59.284;18.022;2022-09-21T14:54:47;1.67;;;0.73;;
12141;SDS011;6134;59.284;18.022;2022-09-21T14:57:25;0.68;;;0.68;;
12141;SDS011;6134;59.284;18.022;2022-09-21T15:00:16;0.93;;;0.70;;
12141;SDS011;6134;59.284;18.022;2022-09-21T15:02:58;2.60;;;0.70;;
12141;SDS011;6134;59.284;18.022;2022-09-21T15:05:32;0.70;;;0.70;;
12141;SDS011;6134;59.284;18.022;2022-09-21T15:08:08;0.80;;;0.80;;
12141;SDS011;6134;59.284;18.022;2022-09-21T15:11:02;0.60;;;0.60;;
12141;SDS011;6134;59.284;18.022;2022-09-21T15:13:38;0.70;;;0.65;;
12141;SDS011;6134;59.284;18.022;2022-09-21T15:16:15;1.17;;;0.60;;
12141;SDS011;6134;59.284;18.022;2022-09-21T15:18:48;2.15;;;0.60;;
12141;SDS011;6134;59.284;18.022;2022-09-21T15:21:21;0.50;;;0.50;;
12141;SDS011;6134;59.284;18.022;2022-09-21T15:23:52;0.65;;;0.60;;
12141;SDS011;6134;59.284;18.022;2022-09-21T15:26:22;0.60;;;0.60;;
12141;SDS011;6134;59.284;18.022;2022-09-21T15:28:55;1.67;;;0.70;;
12141;SDS011;6134;59.284;18.022;2022-09-21T15:31:38;0.73;;;0.70;;
12141;SDS011;6134;59.284;18.022;2022-09-21T15:34:07;0.60;;;0.60;;
12141;SDS011;6134;59.284;18.022;2022-09-21T15:36:37;1.10;;;0.85;;
12141;SDS011;6134;59.284;18.022;2022-09-21T15:39:19;1.02;;;0.70;;
12141;SDS011;6134;59.284;18.022;2022-09-21T15:41:49;1.95;;;1.00;;